Seiad Valley, California
Current Conditions -  °F | °C
As of 4:29 AM on Thursday 29 Jan 2015 (Local Time) from KSIY Reporting Station
Moderate Fog Moderate Fog  
Wind Chill: 27°   Ceiling: 100
Heat Index: 27°   Visibility: 0.25mi
Dew Point: 26°   Wind: 0mph
Humidity: 96%   Direction: NA
Pressure: 30.29"   Gusts: NA
Location:  41.84°N, 123.19°W
Report Text: KSIY 291229Z AUTO 00000KT 1/4SM FZFG VV001 M03/M03 A3029 RMK AO2 T10281033
Loading
Personal Weather Stations






























Interactive Weather Map New forecast layout! Learn more

10-Day Weather Forecast

Advertisements
Track Severe Weather on mobile